Terminal Aerodrome Forecast
Issued by NWS

Home | Current Version | Previous Version | Text Only | Print | Product List | Glossary On
Versions: 1 2 3 4 5 6 7 8 9 10 11 12 13 14 15
000
FTUS46 KSEW 231136 AAA
TAFHQM
TAF AMD
KHQM 231136Z 2312/2412 VRB03KT 3SM BR SCT002
      TEMPO 2312/2316 1/2SM FG VV002
     FM231600 06006KT P6SM SCT005 BKN025
     FM232100 28008KT P6SM SKC
     FM240400 33004KT P6SM SCT020 OVC050
     FM240900 VRB03KT P6SM BKN020 OVC040=

USA.gov is the U.S. government's official web portal to all federal, state and local government web resources and services.